Time;durP1;ratioP1;P1;durP2;ratioP2;P2;SDS_P1;SDS_P2;PMS_P1;PMS_P2;Temp;Humidity;BMP_temperature;BMP_pressure;BME280_temperature;BME280_humidity;BME280_pressure;Samples;Min_cycle;Max_cycle;Signal;HPM_P1;HPM_P2
2022/06/14 00:00:57;;;;;;;3.77;1.07;;;10.90;99.90;;;;;;5055724;28;20480;-87
2022/06/14 00:03:29;;;;;;;9.43;1.57;;;10.90;99.90;;;;;;5055648;28;20402;-91
2022/06/14 00:05:57;;;;;;;6.07;0.63;;;10.90;99.90;;;;;;5055716;28;20449;-92
2022/06/14 00:08:27;;;;;;;7.90;0.87;;;10.90;99.90;;;;;;5054437;28;20419;-85
2022/06/14 00:10:57;;;;;;;2.30;0.70;;;10.80;99.90;;;;;;5055636;28;20419;-86
2022/06/14 00:13:24;;;;;;;2.83;0.50;;;10.80;99.90;;;;;;5054004;28;20430;-92
2022/06/14 00:15:52;;;;;;;6.10;0.73;;;10.70;99.90;;;;;;5055309;28;20413;-88
2022/06/14 00:18:18;;;;;;;5.53;1.00;;;10.70;99.90;;;;;;5055614;28;20818;-85
2022/06/14 00:20:46;;;;;;;3.10;0.77;;;10.60;99.90;;;;;;5055425;28;20781;-93
2022/06/14 00:23:11;;;;;;;4.03;0.80;;;10.70;99.90;;;;;;5055412;28;20405;-84
2022/06/14 00:25:40;;;;;;;1.17;0.33;;;10.70;99.90;;;;;;5055416;28;20426;-92
2022/06/14 00:28:08;;;;;;;6.00;1.07;;;10.50;99.90;;;;;;5055116;28;20176;-91
2022/06/14 00:30:35;;;;;;;2.10;0.50;;;10.50;99.90;;;;;;5054604;28;20912;-91
2022/06/14 00:33:01;;;;;;;4.40;0.83;;;10.60;99.90;;;;;;5054485;28;20439;-91
2022/06/14 00:35:27;;;;;;;7.20;1.10;;;10.60;99.90;;;;;;5055597;28;20427;-93
2022/06/14 00:37:53;;;;;;;5.30;1.20;;;10.60;99.90;;;;;;5054556;28;20171;-93
2022/06/14 00:40:28;;;;;;;4.67;1.43;;;10.60;99.90;;;;;;5055648;28;20544;-93
2022/06/14 00:42:54;;;;;;;4.23;0.57;;;10.50;99.90;;;;;;5055245;28;20181;-90
2022/06/14 00:45:23;;;;;;;5.07;0.83;;;10.50;99.90;;;;;;5054288;28;20507;-92
2022/06/14 00:47:50;;;;;;;4.53;0.87;;;10.50;99.90;;;;;;5055242;28;20179;-89
2022/06/14 00:50:25;;;;;;;4.43;1.40;;;10.50;99.90;;;;;;5055244;28;20418;-88
2022/06/14 00:53:04;;;;;;;3.20;1.20;;;10.50;99.90;;;;;;5055133;28;20415;-89
2022/06/14 00:55:36;;;;;;;4.40;1.00;;;10.50;99.90;;;;;;5053674;28;20501;-90
2022/06/14 00:58:10;;;;;;;3.90;1.13;;;10.60;99.90;;;;;;5054198;28;20489;-89
2022/06/14 01:00:50;;;;;;;3.17;1.10;;;10.50;99.90;;;;;;5053615;28;20532;-90
2022/06/14 01:03:21;;;;;;;2.60;1.00;;;10.50;99.90;;;;;;5054807;28;20451;-90
2022/06/14 01:06:08;;;;;;;6.60;0.60;;;10.40;99.90;;;;;;5054959;28;20427;-90
2022/06/14 01:08:39;;;;;;;6.60;0.93;;;10.50;99.90;;;;;;5054728;28;20412;-91
2022/06/14 01:11:06;;;;;;;7.03;0.80;;;10.40;99.90;;;;;;5054904;28;20436;-90
2022/06/14 01:13:33;;;;;;;4.47;1.10;;;10.40;99.90;;;;;;5054491;28;20414;-90
2022/06/14 01:15:59;;;;;;;4.90;1.23;;;10.50;99.90;;;;;;5054770;28;20415;-91
2022/06/14 01:18:26;;;;;;;4.83;0.57;;;10.50;99.90;;;;;;5054338;28;20461;-89
2022/06/14 01:20:52;;;;;;;6.87;0.87;;;10.50;99.90;;;;;;5054590;28;20258;-90
2022/06/14 01:23:18;;;;;;;3.90;0.70;;;10.50;99.90;;;;;;5054392;28;20504;-90
2022/06/14 01:25:47;;;;;;;7.77;1.50;;;10.50;99.90;;;;;;5053281;28;20183;-91
2022/06/14 01:28:13;;;;;;;3.07;0.83;;;10.50;99.90;;;;;;5054056;28;20419;-88
2022/06/14 01:30:45;;;;;;;2.87;0.70;;;10.50;99.90;;;;;;5053037;28;20445;-89
2022/06/14 01:33:24;;;;;;;4.17;0.93;;;10.50;99.90;;;;;;5054313;28;20411;-90
2022/06/14 01:35:56;;;;;;;3.17;0.50;;;10.50;99.90;;;;;;5054177;28;20497;-91
2022/06/14 01:38:22;;;;;;;2.77;1.03;;;10.50;99.90;;;;;;5054333;28;20498;-90
2022/06/14 01:41:14;;;;;;;6.20;0.93;;;10.60;99.90;;;;;;5054223;28;20512;-91
2022/06/14 01:44:13;;;;;;;3.57;1.07;;;10.60;99.90;;;;;;5055148;28;20524;-91
2022/06/14 01:46:47;;;;;;;5.33;0.70;;;10.60;99.90;;;;;;5063030;28;20424;-94
2022/06/14 01:52:38;;;;;;;3.07;0.80;;;10.40;99.90;;;;;;5059994;28;20477;-91
2022/06/14 01:55:36;;;;;;;3.97;0.80;;;10.40;99.90;;;;;;5053599;28;20757;-87
2022/06/14 01:58:20;;;;;;;6.27;0.93;;;10.40;99.90;;;;;;5047078;28;20566;-90
2022/06/14 02:01:06;;;;;;;3.60;0.57;;;10.40;99.90;;;;;;5055796;28;20416;-90
2022/06/14 02:07:02;;;;;;;8.03;0.70;;;10.40;99.90;;;;;;5071404;28;20397;-87
2022/06/14 02:09:43;;;;;;;7.47;1.53;;;10.50;99.90;;;;;;5053280;28;20419;-89
2022/06/14 02:12:15;;;;;;;4.77;0.70;;;10.40;99.90;;;;;;5053924;28;20502;-93
2022/06/14 02:14:59;;;;;;;4.73;1.10;;;10.40;99.90;;;;;;5053526;28;20410;-92
2022/06/14 02:17:36;;;;;;;3.87;1.70;;;10.40;99.90;;;;;;5054700;28;20740;-84
2022/06/14 02:20:10;;;;;;;1.93;0.60;;;10.40;99.90;;;;;;5053020;28;20479;-84
2022/06/14 02:22:42;;;;;;;3.00;1.03;;;10.30;99.90;;;;;;5052890;28;20425;-86
2022/06/14 02:25:23;;;;;;;5.10;1.10;;;10.30;99.90;;;;;;5053065;28;20865;-84
2022/06/14 02:27:57;;;;;;;4.37;0.73;;;10.30;99.90;;;;;;5053213;28;20917;-90
2022/06/14 02:30:28;;;;;;;3.00;0.47;;;10.30;99.90;;;;;;5053924;28;20427;-90
2022/06/14 02:33:23;;;;;;;3.70;0.77;;;10.30;99.90;;;;;;5059779;28;20809;-86
2022/06/14 02:35:59;;;;;;;6.30;1.17;;;10.30;99.90;;;;;;5053468;28;20770;-90
2022/06/14 02:38:36;;;;;;;4.80;1.27;;;10.20;99.90;;;;;;5051901;28;20404;-89
2022/06/14 02:41:08;;;;;;;2.80;0.70;;;10.30;99.90;;;;;;5053270;28;20556;-89
2022/06/14 02:43:40;;;;;;;4.13;1.23;;;10.30;99.90;;;;;;5052514;28;20413;-89
2022/06/14 02:46:14;;;;;;;2.93;0.37;;;10.30;99.90;;;;;;5051733;28;20426;-88
2022/06/14 02:48:46;;;;;;;4.83;0.80;;;10.10;99.90;;;;;;5052883;28;20764;-87
2022/06/14 02:51:28;;;;;;;3.60;0.20;;;10.10;99.90;;;;;;5051688;28;20417;-87
2022/06/14 02:54:02;;;;;;;2.57;0.60;;;10.00;99.90;;;;;;5052949;28;20929;-88
2022/06/14 02:57:00;;;;;;;3.30;0.60;;;9.80;99.90;;;;;;5051579;28;20925;-87
2022/06/14 02:59:50;;;;;;;2.83;0.80;;;9.80;99.90;;;;;;5036647;28;20487;-88
2022/06/14 03:02:21;;;;;;;3.33;0.73;;;9.70;99.90;;;;;;5057435;28;20416;-89
2022/06/14 03:04:55;;;;;;;4.47;1.27;;;9.70;99.90;;;;;;5055952;28;20416;-90
2022/06/14 03:07:39;;;;;;;2.43;1.07;;;9.70;99.90;;;;;;5057043;28;20790;-88
2022/06/14 03:10:06;;;;;;;3.50;0.67;;;9.70;99.90;;;;;;5057018;28;20958;-89
2022/06/14 03:12:43;;;;;;;3.60;0.77;;;9.80;99.90;;;;;;5056553;28;20430;-87
2022/06/14 03:15:31;;;;;;;5.00;0.87;;;9.80;99.90;;;;;;5057060;28;20413;-91
2022/06/14 03:18:17;;;;;;;3.47;0.70;;;9.90;99.90;;;;;;5057238;28;20456;-92
2022/06/14 03:20:55;;;;;;;4.97;1.20;;;10.00;99.90;;;;;;5057035;28;20414;-92
2022/06/14 03:23:44;;;;;;;5.40;0.87;;;9.90;99.90;;;;;;5057014;28;20420;-91
2022/06/14 03:26:25;;;;;;;3.13;0.87;;;9.90;99.90;;;;;;5056850;28;20418;-91
2022/06/14 03:29:37;;;;;;;3.93;0.97;;;9.80;99.90;;;;;;5057017;28;20397;-93
2022/06/14 03:32:16;;;;;;;4.30;1.03;;;9.90;99.90;;;;;;5035334;28;20425;-94
2022/06/14 03:34:48;;;;;;;4.30;0.77;;;10.00;99.90;;;;;;5055970;28;20498;-92
2022/06/14 03:37:13;;;;;;;6.40;1.47;;;10.00;99.90;;;;;;5056675;28;20400;-93
2022/06/14 03:39:43;;;;;;;5.30;1.37;;;10.10;99.90;;;;;;5056747;28;20488;-93
2022/06/14 03:42:11;;;;;;;7.63;1.30;;;10.10;99.90;;;;;;5056514;28;20173;-91
2022/06/14 03:44:38;;;;;;;4.20;1.33;;;10.10;99.90;;;;;;5056306;28;20420;-90
2022/06/14 03:47:09;;;;;;;6.37;1.57;;;10.20;99.90;;;;;;5055337;28;20431;-90
2022/06/14 03:49:38;;;;;;;2.67;1.30;;;10.30;99.90;;;;;;5056482;28;20427;-88
2022/06/14 03:52:13;;;;;;;6.67;1.60;;;10.40;99.90;;;;;;5054351;28;20776;-84
2022/06/14 03:55:01;;;;;;;4.70;0.83;;;10.50;99.90;;;;;;5055611;28;20406;-85
2022/06/14 03:57:48;;;;;;;5.53;1.17;;;10.70;99.90;;;;;;5055020;28;20459;-87
2022/06/14 04:00:42;;;;;;;5.57;2.00;;;10.80;99.90;;;;;;5055428;28;20472;-84
2022/06/14 04:03:35;;;;;;;4.80;1.50;;;10.80;99.90;;;;;;5055268;28;20418;-84
2022/06/14 04:06:18;;;;;;;2.23;0.80;;;10.90;99.90;;;;;;5055484;28;20420;-86
2022/06/14 04:09:18;;;;;;;2.77;1.13;;;11.00;99.90;;;;;;5055142;28;21018;-88
2022/06/14 04:11:50;;;;;;;5.57;1.00;;;11.00;99.90;;;;;;5055322;28;20777;-86
2022/06/14 04:14:34;;;;;;;5.50;1.20;;;11.10;99.90;;;;;;5053674;28;20421;-85
2022/06/14 04:17:20;;;;;;;12.13;1.60;;;11.10;99.90;;;;;;5055234;28;20418;-84
2022/06/14 04:20:06;;;;;;;3.27;1.07;;;11.20;99.90;;;;;;5054951;28;20478;-84
2022/06/14 04:22:44;;;;;;;6.00;1.83;;;11.30;99.90;;;;;;5055041;28;20500;-83
2022/06/14 04:25:17;;;;;;;3.30;0.90;;;11.40;99.90;;;;;;5055115;28;20409;-84
2022/06/14 04:27:47;;;;;;;6.83;4.00;;;11.40;99.90;;;;;;5054667;28;20412;-82
2022/06/14 04:30:18;;;;;;;3.17;0.80;;;11.50;99.90;;;;;;5054803;28;20921;-83
2022/06/14 04:32:54;;;;;;;4.37;1.50;;;11.50;99.90;;;;;;5054913;28;20854;-86
2022/06/14 04:35:42;;;;;;;2.77;0.47;;;11.40;99.90;;;;;;5053504;28;20420;-87
2022/06/14 04:38:34;;;;;;;4.53;1.30;;;11.40;99.90;;;;;;5054525;28;21021;-85
2022/06/14 04:41:41;;;;;;;5.50;1.57;;;11.40;99.90;;;;;;5048372;28;20427;-83
2022/06/14 04:44:38;;;;;;;5.13;0.93;;;11.50;99.90;;;;;;5052622;28;20414;-88
2022/06/14 04:47:23;;;;;;;5.73;0.90;;;11.60;99.90;;;;;;5054078;28;20421;-84
2022/06/14 04:49:57;;;;;;;5.10;1.23;;;11.70;99.90;;;;;;5054195;28;20420;-84
2022/06/14 04:52:34;;;;;;;9.00;1.27;;;11.80;99.90;;;;;;5054189;28;20413;-85
2022/06/14 04:55:08;;;;;;;2.13;0.50;;;12.00;99.90;;;;;;5054295;28;20513;-90
2022/06/14 04:57:43;;;;;;;2.80;0.50;;;12.10;99.90;;;;;;5053893;28;20454;-88
2022/06/14 05:00:19;;;;;;;3.63;1.07;;;12.20;99.90;;;;;;5054298;28;20458;-89
2022/06/14 05:03:00;;;;;;;5.17;1.00;;;12.30;99.90;;;;;;5054297;28;20403;-85
2022/06/14 05:05:41;;;;;;;2.73;0.90;;;12.40;99.90;;;;;;5054304;28;20485;-87
2022/06/14 05:08:23;;;;;;;3.20;1.03;;;12.50;99.90;;;;;;5052661;28;20402;-89
2022/06/14 05:11:12;;;;;;;6.60;1.03;;;12.50;99.90;;;;;;5052814;28;20524;-87
2022/06/14 05:13:58;;;;;;;3.77;0.70;;;12.60;99.90;;;;;;5053722;28;20437;-86
2022/06/14 05:16:36;;;;;;;2.90;0.60;;;12.70;99.90;;;;;;5053744;28;20421;-84
2022/06/14 05:19:21;;;;;;;4.90;0.87;;;12.60;99.90;;;;;;5053380;28;20478;-89
2022/06/14 05:22:08;;;;;;;11.00;1.17;;;12.50;99.90;;;;;;5053479;28;20444;-90
2022/06/14 05:24:34;;;;;;;4.17;0.50;;;12.50;99.90;;;;;;5053593;28;20495;-85
2022/06/14 05:27:12;;;;;;;9.03;1.43;;;12.70;99.90;;;;;;5053466;28;20411;-85
2022/06/14 05:29:59;;;;;;;5.07;1.40;;;12.80;99.90;;;;;;5053881;28;20408;-89
2022/06/14 05:32:38;;;;;;;3.67;0.80;;;13.00;99.90;;;;;;5054170;28;20407;-88
2022/06/14 05:35:30;;;;;;;7.40;1.23;;;13.30;99.90;;;;;;5053437;28;20404;-85
2022/06/14 05:37:58;;;;;;;3.87;0.90;;;13.50;99.90;;;;;;5053364;28;20415;-85
2022/06/14 05:40:37;;;;;;;11.97;1.80;;;13.90;99.90;;;;;;5053381;28;20585;-86
2022/06/14 05:43:15;;;;;;;6.33;2.50;;;14.00;26.50;;;;;;5053117;28;20499;-84
2022/06/14 05:45:46;;;;;;;2.03;0.37;;;14.10;1.00;;;;;;5051989;28;20432;-87
2022/06/14 05:48:24;;;;;;;5.47;0.77;;;14.10;1.00;;;;;;5053373;28;20411;-87
2022/06/14 05:50:54;;;;;;;7.80;1.10;;;14.10;1.00;;;;;;5055276;28;20764;-86
2022/06/14 05:53:34;;;;;;;5.57;0.70;;;14.00;1.00;;;;;;5052802;28;20784;-86
2022/06/14 05:56:32;;;;;;;4.97;0.63;;;13.80;1.00;;;;;;5053107;28;20444;-86
2022/06/14 05:59:10;;;;;;;3.57;1.00;;;13.70;1.00;;;;;;5051199;28;20482;-83
2022/06/14 06:01:45;;;;;;;3.17;0.97;;;13.70;39.50;;;;;;5052017;28;20443;-85
2022/06/14 06:04:16;;;;;;;7.87;1.20;;;13.70;8.60;;;;;;5052922;28;20419;-89
2022/06/14 06:06:46;;;;;;;3.83;1.10;;;13.60;1.00;;;;;;5052991;28;20424;-83
2022/06/14 06:09:30;;;;;;;4.57;0.60;;;13.60;1.00;;;;;;5053254;28;20470;-84
2022/06/14 06:12:02;;;;;;;4.63;0.67;;;13.50;36.20;;;;;;5052949;28;20420;-92
2022/06/14 06:14:46;;;;;;;10.30;1.20;;;13.60;20.70;;;;;;5052989;28;20849;-87
2022/06/14 06:17:24;;;;;;;12.07;1.90;;;13.70;99.90;;;;;;5053499;28;20503;-85
2022/06/14 06:20:02;;;;;;;5.47;1.13;;;13.80;33.90;;;;;;5053748;28;20463;-94
2022/06/14 06:22:44;;;;;;;5.07;1.53;;;13.90;34.90;;;;;;5053409;28;20423;-91
2022/06/14 06:25:16;;;;;;;5.13;1.40;;;14.10;20.70;;;;;;5053438;28;20405;-89
2022/06/14 06:28:11;;;;;;;4.40;1.37;;;14.20;47.50;;;;;;5051930;28;20416;-86
2022/06/14 06:31:09;;;;;;;7.03;1.53;;;14.20;1.00;;;;;;5051855;28;20428;-85
2022/06/14 06:33:40;;;;;;;6.80;1.30;;;14.20;1.00;;;;;;5037794;28;20420;-86
2022/06/14 06:36:38;;;;;;;5.50;0.70;;;14.20;1.00;;;;;;5057256;28;20404;-89
2022/06/14 06:39:24;;;;;;;8.33;1.63;;;14.20;1.00;;;;;;5055673;28;20459;-88
2022/06/14 06:41:55;;;;;;;7.10;1.00;;;14.20;1.00;;;;;;5056743;28;20421;-89
2022/06/14 06:44:49;;;;;;;4.27;1.23;;;14.20;1.00;;;;;;5056748;28;20409;-90
2022/06/14 06:47:28;;;;;;;7.60;1.00;;;14.20;1.00;;;;;;5057150;28;21033;-91
2022/06/14 06:50:15;;;;;;;12.40;1.50;;;14.20;1.00;;;;;;5055665;28;20477;-87
2022/06/14 06:52:46;;;;;;;3.10;0.97;;;14.20;1.00;;;;;;5055905;28;20422;-90
2022/06/14 06:55:17;;;;;;;4.63;0.60;;;14.30;1.00;;;;;;5055796;28;20462;-89
2022/06/14 06:57:45;;;;;;;5.30;0.67;;;14.50;1.00;;;;;;5056654;28;20482;-90
2022/06/14 07:00:14;;;;;;;9.50;1.67;;;14.80;1.00;;;;;;5056756;28;20940;-88
2022/06/14 07:02:49;;;;;;;5.37;0.90;;;15.60;1.00;;;;;;5056460;28;20413;-89
2022/06/14 07:05:17;;;;;;;7.60;1.17;;;16.40;99.90;;;;;;5056429;28;20799;-87
2022/06/14 07:07:57;;;;;;;5.93;0.63;;;17.60;1.00;;;;;;5056679;28;20409;-91
2022/06/14 07:10:38;;;;;;;7.70;1.53;;;17.00;35.00;;;;;;5056533;28;20778;-89
2022/06/14 07:13:44;;;;;;;5.40;1.17;;;19.80;99.90;;;;;;5056083;28;20404;-88
2022/06/14 07:16:18;;;;;;;5.57;1.23;;;19.00;99.90;;;;;;5043976;28;20422;-89
2022/06/14 07:18:57;;;;;;;1.83;0.43;;;17.60;99.90;;;;;;5056385;28;20455;-90
2022/06/14 07:21:33;;;;;;;8.83;1.40;;;18.20;99.90;;;;;;5056202;28;20419;-90
2022/06/14 07:24:16;;;;;;;4.87;0.90;;;19.30;99.90;;;;;;5056657;28;20565;-90
2022/06/14 07:26:52;;;;;;;6.60;1.10;;;17.50;99.90;;;;;;5056254;28;20827;-90
2022/06/14 07:29:35;;;;;;;7.57;1.23;;;17.30;1.00;;;;;;5056339;28;20447;-92
2022/06/14 07:32:08;;;;;;;6.10;0.50;;;17.00;99.90;;;;;;5055946;28;20820;-84
2022/06/14 07:34:37;;;;;;;4.63;1.33;;;16.50;99.90;;;;;;5055963;28;20420;-85
2022/06/14 07:37:11;;;;;;;5.83;0.90;;;16.70;67.30;;;;;;5055673;28;20420;-88
2022/06/14 07:39:42;;;;;;;5.33;0.60;;;18.80;1.00;;;;;;5055885;28;20477;-85
2022/06/14 07:42:12;;;;;;;10.67;1.37;;;18.70;1.00;;;;;;5055109;28;20464;-83
2022/06/14 07:45:01;;;;;;;5.00;0.93;;;20.00;99.90;;;;;;5054816;28;20404;-83
2022/06/14 07:47:40;;;;;;;5.03;1.10;;;21.40;99.90;;;;;;5055329;28;20404;-84
2022/06/14 07:50:22;;;;;;;5.50;0.60;;;23.20;99.90;;;;;;5055312;28;20409;-84
2022/06/14 07:53:28;;;;;;;8.43;1.43;;;20.40;99.90;;;;;;5055187;28;20432;-84
2022/06/14 07:55:56;;;;;;;6.43;1.27;;;18.70;99.90;;;;;;5055123;28;20507;-84
2022/06/14 07:58:27;;;;;;;3.10;1.00;;;18.10;1.00;;;;;;5053166;28;20456;-83
2022/06/14 08:01:09;;;;;;;6.00;1.23;;;18.80;1.00;;;;;;5055259;28;20776;-84
2022/06/14 08:03:40;;;;;;;6.00;0.70;;;20.00;99.90;;;;;;5055256;28;20408;-84
2022/06/14 08:06:14;;;;;;;4.97;0.93;;;19.60;99.90;;;;;;5054808;28;20900;-85
2022/06/14 08:08:43;;;;;;;4.80;0.80;;;18.60;99.90;;;;;;5065540;28;20412;-83
2022/06/14 08:11:22;;;;;;;6.13;0.37;;;18.40;99.90;;;;;;5074346;28;20434;-84
2022/06/14 08:13:57;;;;;;;6.10;1.03;;;17.90;1.00;;;;;;5056533;28;20460;-84
2022/06/14 08:16:24;;;;;;;3.73;0.80;;;17.80;99.90;;;;;;5055244;28;20408;-84
2022/06/14 08:19:06;;;;;;;8.90;0.83;;;17.70;99.90;;;;;;5054757;28;20536;-84
2022/06/14 08:21:38;;;;;;;4.70;0.50;;;18.70;99.90;;;;;;5054849;28;20466;-84
2022/06/14 08:24:08;;;;;;;5.73;1.40;;;19.10;99.90;;;;;;5054834;28;20460;-83
2022/06/14 08:27:01;;;;;;;4.53;0.60;;;19.00;99.90;;;;;;5054286;28;20503;-84
2022/06/14 08:29:46;;;;;;;4.27;0.77;;;21.30;99.90;;;;;;5054619;28;20417;-85
2022/06/14 08:32:25;;;;;;;3.70;0.47;;;23.30;93.10;;;;;;5054643;28;20401;-84
2022/06/14 08:34:56;;;;;;;3.03;0.80;;;23.40;36.40;;;;;;5054570;28;20488;-86
2022/06/14 08:37:34;;;;;;;3.23;0.47;;;20.30;40.80;;;;;;5054488;28;20468;-83
2022/06/14 08:40:21;;;;;;;8.10;1.40;;;18.70;99.90;;;;;;5054353;28;20575;-85
2022/06/14 08:42:51;;;;;;;3.80;1.00;;;18.10;99.90;;;;;;5054457;28;20768;-87
2022/06/14 08:45:30;;;;;;;5.80;1.00;;;17.50;99.90;;;;;;5054612;28;20510;-85
2022/06/14 08:48:06;;;;;;;8.00;0.93;;;17.30;99.90;;;;;;5054447;28;20404;-89
2022/06/14 08:51:05;;;;;;;4.30;0.90;;;17.60;99.90;;;;;;5054491;28;20430;-86
2022/06/14 08:53:52;;;;;;;4.60;0.90;;;17.70;99.90;;;;;;5054270;28;20419;-84
2022/06/14 08:56:32;;;;;;;5.00;0.90;;;17.80;99.90;;;;;;5049738;28;20492;-85
2022/06/14 08:59:17;;;;;;;3.80;1.03;;;18.20;99.90;;;;;;5027234;28;20510;-84
2022/06/14 09:02:10;;;;;;;4.10;0.50;;;18.90;99.90;;;;;;5052841;28;20418;-87
2022/06/14 09:04:55;;;;;;;6.10;0.87;;;19.10;99.90;;;;;;5052558;28;20773;-83
2022/06/14 09:07:58;;;;;;;3.20;0.50;;;19.50;99.90;;;;;;5052639;28;20826;-83
2022/06/14 09:10:53;;;;;;;8.53;1.17;;;20.90;99.90;;;;;;5052588;28;20417;-86
2022/06/14 09:13:57;;;;;;;3.10;0.80;;;20.60;99.90;;;;;;5052305;28;20938;-84
2022/06/14 09:16:54;;;;;;;3.87;0.83;;;19.90;99.90;;;;;;5053024;28;20425;-84
2022/06/14 09:19:34;;;;;;;3.67;0.90;;;19.40;99.90;;;;;;5068064;28;20762;-83
2022/06/14 09:22:02;;;;;;;2.40;0.40;;;19.20;99.90;;;;;;5052379;28;20406;-84
2022/06/14 09:24:41;;;;;;;4.30;0.93;;;19.00;99.90;;;;;;5067923;28;20849;-84
2022/06/14 09:27:10;;;;;;;6.20;1.27;;;18.40;99.90;;;;;;5052077;28;20421;-84
2022/06/14 09:30:05;;;;;;;2.33;0.53;;;18.10;99.90;;;;;;5067759;28;20443;-84
2022/06/14 09:36:15;;;;;;;1.90;0.60;;;17.80;99.90;;;;;;5029174;28;20424;-83
2022/06/14 09:38:49;;;;;;;5.37;0.40;;;17.80;99.90;;;;;;5017775;28;20804;-82
2022/06/14 09:41:33;;;;;;;7.57;0.73;;;17.90;99.90;;;;;;5052196;28;20422;-82
2022/06/14 09:44:20;;;;;;;4.47;0.40;;;18.00;99.90;;;;;;5053342;28;20483;-82
2022/06/14 09:47:21;;;;;;;2.90;0.60;;;18.20;99.90;;;;;;5052581;28;20499;-83
2022/06/14 09:50:23;;;;;;;4.00;0.30;;;18.30;99.90;;;;;;5052015;28;20421;-83
2022/06/14 09:53:12;;;;;;;3.40;0.67;;;18.80;99.90;;;;;;5067467;28;20420;-83
2022/06/14 09:55:38;;;;;;;4.03;1.00;;;20.10;99.90;;;;;;5052006;28;20493;-84
2022/06/14 09:58:20;;;;;;;4.10;0.97;;;20.70;99.90;;;;;;5051560;28;20832;-84
2022/06/14 10:01:00;;;;;;;3.90;0.83;;;20.10;74.40;;;;;;5051808;28;20230;-82
2022/06/14 10:04:03;;;;;;;2.83;0.57;;;19.90;78.10;;;;;;5052562;28;20410;-81
2022/06/14 10:06:39;;;;;;;6.00;0.40;;;20.20;84.60;;;;;;5051305;28;20975;-85
2022/06/14 10:09:28;;;;;;;3.33;0.67;;;20.10;99.90;;;;;;5051834;28;20934;-86
2022/06/14 10:12:15;;;;;;;2.70;1.13;;;19.60;92.70;;;;;;5051599;28;20419;-82
2022/06/14 10:14:50;;;;;;;3.50;0.93;;;19.30;96.60;;;;;;5051936;28;20481;-82
2022/06/14 10:17:32;;;;;;;3.50;0.90;;;18.80;99.90;;;;;;5051931;28;20870;-82
2022/06/14 10:20:22;;;;;;;4.73;0.67;;;18.40;99.90;;;;;;5051789;28;20478;-81
2022/06/14 10:23:08;;;;;;;5.13;1.00;;;18.10;99.90;;;;;;5051604;28;20408;-85
2022/06/14 10:28:57;;;;;;;1.87;0.57;;;18.00;99.90;;;;;;5051364;28;20500;-83
2022/06/14 10:31:51;;;;;;;5.67;1.00;;;18.20;99.90;;;;;;5051723;28;20817;-85
2022/06/14 10:34:31;;;;;;;4.30;1.20;;;18.40;99.90;;;;;;5051451;28;20421;-83
2022/06/14 10:37:24;;;;;;;4.80;0.80;;;18.70;99.90;;;;;;5051315;28;20941;-86
2022/06/14 10:40:27;;;;;;;2.17;0.53;;;18.90;99.90;;;;;;5052951;28;20489;-81
2022/06/14 10:43:33;;;;;;;1.27;0.40;;;19.00;99.90;;;;;;5051855;28;20785;-83
2022/06/14 10:46:07;;;;;;;4.43;0.70;;;19.10;99.90;;;;;;5051341;28;20452;-83
2022/06/14 10:48:42;;;;;;;6.37;1.10;;;18.90;99.90;;;;;;5051347;28;20427;-82
2022/06/14 10:51:35;;;;;;;2.97;0.60;;;18.80;99.90;;;;;;5051186;28;20414;-84
2022/06/14 10:54:08;;;;;;;4.90;0.63;;;19.10;99.90;;;;;;5051368;28;20932;-84
2022/06/14 10:57:13;;;;;;;4.23;0.53;;;19.40;99.90;;;;;;5050855;28;20423;-83
2022/06/14 10:59:42;;;;;;;3.50;0.37;;;19.60;98.40;;;;;;5050961;28;20496;-83
2022/06/14 11:02:45;;;;;;;3.13;0.30;;;19.70;84.70;;;;;;5051075;28;20408;-82
2022/06/14 11:05:26;;;;;;;3.43;0.43;;;19.90;76.20;;;;;;5051237;28;20427;-83
2022/06/14 11:08:14;;;;;;;4.67;0.60;;;20.10;86.90;;;;;;5066659;28;20429;-85
2022/06/14 11:10:42;;;;;;;3.23;0.50;;;21.30;70.00;;;;;;5051086;28;20409;-82
2022/06/14 11:13:28;;;;;;;5.50;0.87;;;21.50;49.80;;;;;;5050739;28;20479;-83
2022/06/14 11:16:10;;;;;;;3.17;0.60;;;21.20;48.60;;;;;;5051059;28;20508;-82
2022/06/14 11:19:22;;;;;;;4.43;0.63;;;20.90;49.00;;;;;;5052419;28;20416;-84
2022/06/14 11:22:29;;;;;;;5.40;0.80;;;20.70;51.50;;;;;;5054787;28;20429;-83
2022/06/14 11:24:59;;;;;;;4.20;0.80;;;20.70;69.60;;;;;;5054697;28;20453;-84
2022/06/14 11:27:31;;;;;;;4.80;1.27;;;20.90;96.50;;;;;;5054308;28;20419;-84
2022/06/14 11:30:09;;;;;;;4.73;1.17;;;21.30;93.20;;;;;;5055028;28;20416;-83
2022/06/14 11:33:01;;;;;;;4.30;0.93;;;21.90;96.90;;;;;;5069938;28;20440;-86
2022/06/14 11:35:54;;;;;;;2.60;0.83;;;21.80;67.40;;;;;;5054509;28;20427;-83
2022/06/14 11:39:04;;;;;;;4.33;1.00;;;22.10;55.30;;;;;;5054400;28;20415;-82
2022/06/14 11:41:37;;;;;;;4.07;0.73;;;22.10;40.10;;;;;;5011731;28;20429;-82
2022/06/14 11:44:22;;;;;;;2.70;0.70;;;21.20;57.30;;;;;;5047623;28;20499;-83
2022/06/14 11:46:56;;;;;;;2.33;0.67;;;20.90;72.30;;;;;;5054288;28;20412;-84
2022/06/14 11:49:46;;;;;;;5.07;0.63;;;20.50;62.30;;;;;;5054067;28;20416;-83
2022/06/14 11:52:21;;;;;;;3.87;0.37;;;20.40;60.10;;;;;;5053961;28;20410;-84
2022/06/14 11:55:06;;;;;;;3.20;0.50;;;20.80;53.40;;;;;;5054084;28;20837;-82
2022/06/14 11:58:11;;;;;;;4.70;0.87;;;21.20;59.70;;;;;;5053492;28;20463;-82
2022/06/14 12:00:50;;;;;;;6.67;0.90;;;21.60;45.70;;;;;;5054094;28;20468;-83
2022/06/14 12:03:23;;;;;;;5.20;1.23;;;21.50;66.40;;;;;;5069492;28;20772;-83
2022/06/14 12:05:58;;;;;;;2.40;0.70;;;21.30;52.00;;;;;;5069361;28;20860;-81
2022/06/14 12:09:02;;;;;;;4.07;1.23;;;21.00;44.00;;;;;;5052617;28;20440;-83
2022/06/14 12:11:35;;;;;;;2.93;0.53;;;21.00;48.50;;;;;;5030105;28;20513;-83
2022/06/14 12:14:20;;;;;;;1.57;0.47;;;21.30;42.80;;;;;;5053662;28;20447;-84
2022/06/14 12:16:57;;;;;;;2.23;0.37;;;21.60;38.00;;;;;;5053546;28;20412;-82
2022/06/14 12:19:31;;;;;;;3.13;0.40;;;21.50;34.20;;;;;;5053597;28;20558;-81
2022/06/14 12:22:26;;;;;;;3.07;0.33;;;20.80;37.00;;;;;;5053388;28;20408;-82
2022/06/14 12:28:28;;;;;;;2.90;0.83;;;20.90;51.40;;;;;;5051376;28;20411;-83
2022/06/14 12:31:04;;;;;;;1.00;0.40;;;20.80;83.50;;;;;;5074023;28;20438;-82
2022/06/14 12:33:51;;;;;;;3.00;0.50;;;20.90;79.10;;;;;;5088209;28;20448;-84
2022/06/14 12:37:04;;;;;;;2.17;0.40;;;20.70;44.70;;;;;;5059406;28;20515;-82
2022/06/14 12:39:37;;;;;;;3.27;1.30;;;20.80;48.70;;;;;;5021770;28;20470;-84
2022/06/14 12:42:12;;;;;;;2.77;0.30;;;20.90;49.80;;;;;;5053092;28;20420;-87
2022/06/14 12:45:17;;;;;;;1.90;0.60;;;21.00;48.20;;;;;;5053141;28;20415;-85
2022/06/14 12:48:09;;;;;;;5.10;0.63;;;20.90;51.40;;;;;;5010904;28;20431;-84
2022/06/14 12:50:43;;;;;;;1.30;0.33;;;20.70;44.40;;;;;;5052822;28;20426;-86
2022/06/14 12:53:23;;;;;;;4.10;0.77;;;20.70;65.10;;;;;;5052956;28;20430;-85
2022/06/14 12:55:56;;;;;;;2.43;0.50;;;20.50;36.70;;;;;;5052526;28;20450;-83
2022/06/14 12:58:34;;;;;;;5.57;0.63;;;20.20;38.50;;;;;;5052725;28;20478;-83
2022/06/14 13:01:08;;;;;;;2.83;1.07;;;20.20;49.30;;;;;;5052606;28;20433;-84
2022/06/14 13:03:43;;;;;;;2.80;0.63;;;20.30;73.80;;;;;;5052738;28;20475;-84
2022/06/14 13:06:24;;;;;;;3.47;0.57;;;20.50;74.80;;;;;;5052628;28;20513;-83
2022/06/14 13:09:02;;;;;;;5.33;0.50;;;20.30;52.20;;;;;;5052741;28;20432;-85
2022/06/14 13:11:38;;;;;;;2.30;0.50;;;20.10;50.00;;;;;;5067591;28;20832;-86
2022/06/14 13:14:15;;;;;;;3.60;0.57;;;20.10;48.40;;;;;;5069079;28;20771;-86
2022/06/14 13:16:59;;;;;;;1.23;0.23;;;20.00;50.90;;;;;;5068698;28;20431;-85
2022/06/14 13:19:45;;;;;;;4.00;2.77;;;19.90;55.60;;;;;;5053379;28;20493;-83
2022/06/14 13:22:37;;;;;;;1.00;0.67;;;19.90;62.70;;;;;;5053531;28;20454;-87
2022/06/14 13:25:21;;;;;;;2.10;0.27;;;19.90;51.70;;;;;;5053756;28;20425;-87
2022/06/14 13:28:05;;;;;;;1.43;0.20;;;19.90;74.70;;;;;;5053203;28;20476;-82
2022/06/14 13:30:39;;;;;;;1.90;0.63;;;19.90;75.40;;;;;;5053448;28;20647;-82
2022/06/14 13:33:35;;;;;;;2.13;0.30;;;19.70;71.70;;;;;;5068805;28;20428;-81
2022/06/14 13:36:09;;;;;;;1.40;0.30;;;19.70;83.40;;;;;;5053413;28;20514;-84
2022/06/14 13:38:50;;;;;;;2.53;0.53;;;19.70;69.30;;;;;;5068623;28;20501;-84
2022/06/14 13:41:27;;;;;;;3.13;0.73;;;19.90;72.20;;;;;;5052244;28;20426;-84
2022/06/14 13:44:15;;;;;;;2.90;0.50;;;20.10;91.40;;;;;;5053110;28;20910;-84
2022/06/14 13:46:58;;;;;;;3.30;0.20;;;20.20;87.40;;;;;;5053168;28;20777;-85
2022/06/14 13:49:37;;;;;;;1.90;0.23;;;20.10;72.10;;;;;;5053155;28;20493;-84
2022/06/14 13:52:32;;;;;;;2.30;0.33;;;20.10;60.90;;;;;;5044682;28;20469;-84
2022/06/14 13:55:12;;;;;;;1.77;0.60;;;20.10;56.90;;;;;;5032647;28;20471;-84
2022/06/14 13:58:07;;;;;;;2.30;0.43;;;20.30;76.10;;;;;;5032371;28;20538;-84
2022/06/14 14:00:59;;;;;;;1.10;0.50;;;20.30;55.80;;;;;;5049888;28;20490;-84
2022/06/14 14:03:38;;;;;;;3.13;0.73;;;20.50;65.20;;;;;;5052595;28;20443;-83
2022/06/14 14:06:16;;;;;;;1.60;0.33;;;20.30;50.30;;;;;;5051118;28;20419;-84
2022/06/14 14:09:11;;;;;;;3.70;0.90;;;20.20;78.40;;;;;;5052587;28;20979;-85
2022/06/14 14:11:48;;;;;;;2.50;0.53;;;20.10;91.10;;;;;;5052423;28;20418;-84